Aviation Digital Data Service (ADDS)

Output produced by METARs form (1118 UTC 23 June 2021)
found at http://www.aviationweather.gov/metar/data/
 
METAR text: VTBS 231100Z 20011KT 9999 VCSH FEW020CB SCT080 30/25 Q1006 NOSIG
Conditions at: VTBS (CHON BURI/SATTAH, TH) observed 1100 UTC 23 June 2021
Temperature: 30.0°C (86°F)
Dewpoint: 25.0°C (77°F) [RH = 75%]
Pressure (altimeter): 29.70 inches Hg (1006.0 mb)
Winds: from the SSW (200 degrees) at 13 MPH (11 knots; 5.7 m/s)
Visibility: 6 or more miles (10+ km)
Ceiling: at least 12,000 feet AGL
Clouds: few clouds at 2000 feet AGL
scattered clouds at 8000 feet AGL
Weather: VCSH  (showers in vicinity)

METAR text: VTBS 231030Z 19014KT 9999 FEW020 31/25 Q1006 NOSIG
Conditions at: VTBS (CHON BURI/SATTAH, TH) observed 1030 UTC 23 June 2021
Temperature: 31.0°C (88°F)
Dewpoint: 25.0°C (77°F) [RH = 71%]
Pressure (altimeter): 29.70 inches Hg (1006.0 mb)
Winds: from the S (190 degrees) at 16 MPH (14 knots; 7.2 m/s)
Visibility: 6 or more miles (10+ km)
Ceiling: at least 12,000 feet AGL
Clouds: few clouds at 2000 feet AGL
Weather: no significant weather observed at this time

METAR text: VTBS 231000Z 19015KT 9999 FEW020 31/24 Q1006 NOSIG
Conditions at: VTBS (CHON BURI/SATTAH, TH) observed 1000 UTC 23 June 2021
Temperature: 31.0°C (88°F)
Dewpoint: 24.0°C (75°F) [RH = 66%]
Pressure (altimeter): 29.70 inches Hg (1006.0 mb)
Winds: from the S (190 degrees) at 17 MPH (15 knots; 7.7 m/s)
Visibility: 6 or more miles (10+ km)
Ceiling: at least 12,000 feet AGL
Clouds: few clouds at 2000 feet AGL
Weather: no significant weather observed at this time

METAR text: VTBS 230930Z 19015KT 9999 FEW020TCU 32/24 Q1006 NOSIG
Conditions at: VTBS (CHON BURI/SATTAH, TH) observed 0930 UTC 23 June 2021
Temperature: 32.0°C (90°F)
Dewpoint: 24.0°C (75°F) [RH = 63%]
Pressure (altimeter): 29.70 inches Hg (1006.0 mb)
Winds: from the S (190 degrees) at 17 MPH (15 knots; 7.7 m/s)
Visibility: 6 or more miles (10+ km)
Ceiling: at least 12,000 feet AGL
Clouds: few clouds at 2000 feet AGL
Weather: no significant weather observed at this time

METAR text: VTBS 230900Z 19015KT 9999 FEW020 32/24 Q1006 NOSIG
Conditions at: VTBS (CHON BURI/SATTAH, TH) observed 0900 UTC 23 June 2021
Temperature: 32.0°C (90°F)
Dewpoint: 24.0°C (75°F) [RH = 63%]
Pressure (altimeter): 29.70 inches Hg (1006.0 mb)
Winds: from the S (190 degrees) at 17 MPH (15 knots; 7.7 m/s)
Visibility: 6 or more miles (10+ km)
Ceiling: at least 12,000 feet AGL
Clouds: few clouds at 2000 feet AGL
Weather: no significant weather observed at this time

METAR text: VTBS 230830Z 18014KT 9999 FEW020 33/24 Q1006 NOSIG
Conditions at: VTBS (CHON BURI/SATTAH, TH) observed 0830 UTC 23 June 2021
Temperature: 33.0°C (91°F)
Dewpoint: 24.0°C (75°F) [RH = 59%]
Pressure (altimeter): 29.70 inches Hg (1006.0 mb)
Winds: from the S (180 degrees) at 16 MPH (14 knots; 7.2 m/s)
Visibility: 6 or more miles (10+ km)
Ceiling: at least 12,000 feet AGL
Clouds: few clouds at 2000 feet AGL
Weather: no significant weather observed at this time

METAR text: VTBS 230800Z 19013KT 9999 FEW020 33/24 Q1006 NOSIG
Conditions at: VTBS (CHON BURI/SATTAH, TH) observed 0800 UTC 23 June 2021
Temperature: 33.0°C (91°F)
Dewpoint: 24.0°C (75°F) [RH = 59%]
Pressure (altimeter): 29.70 inches Hg (1006.0 mb)
Winds: from the S (190 degrees) at 15 MPH (13 knots; 6.7 m/s)
Visibility: 6 or more miles (10+ km)
Ceiling: at least 12,000 feet AGL
Clouds: few clouds at 2000 feet AGL
Weather: no significant weather observed at this time

METAR text: VTBS 230730Z 19010KT 170V230 9999 FEW020 34/23 Q1007 NOSIG
Conditions at: VTBS (CHON BURI/SATTAH, TH) observed 0730 UTC 23 June 2021
Temperature: 34.0°C (93°F)
Dewpoint: 23.0°C (73°F) [RH = 53%]
Pressure (altimeter): 29.73 inches Hg (1007.0 mb)
Winds: from the S (190 degrees) at 12 MPH (10 knots; 5.1 m/s)
Visibility: 6 or more miles (10+ km)
Ceiling: at least 12,000 feet AGL
Clouds: few clouds at 2000 feet AGL
Weather: no significant weather observed at this time

METAR text: VTBS 230700Z 20010KT 170V230 9999 FEW020 33/24 Q1007 NOSIG
Conditions at: VTBS (CHON BURI/SATTAH, TH) observed 0700 UTC 23 June 2021
Temperature: 33.0°C (91°F)
Dewpoint: 24.0°C (75°F) [RH = 59%]
Pressure (altimeter): 29.73 inches Hg (1007.0 mb)
Winds: from the SSW (200 degrees) at 12 MPH (10 knots; 5.1 m/s)
Visibility: 6 or more miles (10+ km)
Ceiling: at least 12,000 feet AGL
Clouds: few clouds at 2000 feet AGL
Weather: no significant weather observed at this time

METAR text: VTBS 230630Z 19012KT 9999 FEW020 34/24 Q1008 NOSIG
Conditions at: VTBS (CHON BURI/SATTAH, TH) observed 0630 UTC 23 June 2021
Temperature: 34.0°C (93°F)
Dewpoint: 24.0°C (75°F) [RH = 56%]
Pressure (altimeter): 29.76 inches Hg (1008.0 mb)
Winds: from the S (190 degrees) at 14 MPH (12 knots; 6.2 m/s)
Visibility: 6 or more miles (10+ km)
Ceiling: at least 12,000 feet AGL
Clouds: few clouds at 2000 feet AGL
Weather: no significant weather observed at this time

METAR text: VTBS 230600Z 20012KT 170V240 9999 FEW020 33/24 Q1008 NOSIG
Conditions at: VTBS (CHON BURI/SATTAH, TH) observed 0600 UTC 23 June 2021
Temperature: 33.0°C (91°F)
Dewpoint: 24.0°C (75°F) [RH = 59%]
Pressure (altimeter): 29.76 inches Hg (1008.0 mb)
Winds: from the SSW (200 degrees) at 14 MPH (12 knots; 6.2 m/s)
Visibility: 6 or more miles (10+ km)
Ceiling: at least 12,000 feet AGL
Clouds: few clouds at 2000 feet AGL
Weather: no significant weather observed at this time

METAR text: VTBS 230530Z 19011KT 160V220 9999 FEW020 33/23 Q1008 NOSIG
Conditions at: VTBS (CHON BURI/SATTAH, TH) observed 0530 UTC 23 June 2021
Temperature: 33.0°C (91°F)
Dewpoint: 23.0°C (73°F) [RH = 56%]
Pressure (altimeter): 29.76 inches Hg (1008.0 mb)
Winds: from the S (190 degrees) at 13 MPH (11 knots; 5.7 m/s)
Visibility: 6 or more miles (10+ km)
Ceiling: at least 12,000 feet AGL
Clouds: few clouds at 2000 feet AGL
Weather: no significant weather observed at this time

METAR text: VTBS 230500Z 26008KT 190V260 9999 FEW020 33/22 Q1009 NOSIG
Conditions at: VTBS (CHON BURI/SATTAH, TH) observed 0500 UTC 23 June 2021
Temperature: 33.0°C (91°F)
Dewpoint: 22.0°C (72°F) [RH = 53%]
Pressure (altimeter): 29.79 inches Hg (1009.0 mb)
Winds: from the W (260 degrees) at 9 MPH (8 knots; 4.1 m/s)
Visibility: 6 or more miles (10+ km)
Ceiling: at least 12,000 feet AGL
Clouds: few clouds at 2000 feet AGL
Weather: no significant weather observed at this time

METAR text: VTBS 230430Z 23006KT 160V290 9999 FEW020 33/22 Q1009 NOSIG
Conditions at: VTBS (CHON BURI/SATTAH, TH) observed 0430 UTC 23 June 2021
Temperature: 33.0°C (91°F)
Dewpoint: 22.0°C (72°F) [RH = 53%]
Pressure (altimeter): 29.79 inches Hg (1009.0 mb)
Winds: from the SW (230 degrees) at 7 MPH (6 knots; 3.1 m/s)
Visibility: 6 or more miles (10+ km)
Ceiling: at least 12,000 feet AGL
Clouds: few clouds at 2000 feet AGL
Weather: no significant weather observed at this time

METAR text: VTBS 230400Z 26008KT 210V290 9999 FEW020 33/22 Q1010 NOSIG
Conditions at: VTBS (CHON BURI/SATTAH, TH) observed 0400 UTC 23 June 2021
Temperature: 33.0°C (91°F)
Dewpoint: 22.0°C (72°F) [RH = 53%]
Pressure (altimeter): 29.82 inches Hg (1010.0 mb)
Winds: from the W (260 degrees) at 9 MPH (8 knots; 4.1 m/s)
Visibility: 6 or more miles (10+ km)
Ceiling: at least 12,000 feet AGL
Clouds: few clouds at 2000 feet AGL
Weather: no significant weather observed at this time

METAR text: VTBS 230330Z 26007KT 220V310 9999 FEW020 33/22 Q1010 NOSIG
Conditions at: VTBS (CHON BURI/SATTAH, TH) observed 0330 UTC 23 June 2021
Temperature: 33.0°C (91°F)
Dewpoint: 22.0°C (72°F) [RH = 53%]
Pressure (altimeter): 29.82 inches Hg (1010.0 mb)
Winds: from the W (260 degrees) at 8 MPH (7 knots; 3.6 m/s)
Visibility: 6 or more miles (10+ km)
Ceiling: at least 12,000 feet AGL
Clouds: few clouds at 2000 feet AGL
Weather: no significant weather observed at this time

METAR text: VTBS 230300Z 22007KT 190V270 9999 FEW020 32/22 Q1010 NOSIG
Conditions at: VTBS (CHON BURI/SATTAH, TH) observed 0300 UTC 23 June 2021
Temperature: 32.0°C (90°F)
Dewpoint: 22.0°C (72°F) [RH = 56%]
Pressure (altimeter): 29.82 inches Hg (1010.0 mb)
Winds: from the SW (220 degrees) at 8 MPH (7 knots; 3.6 m/s)
Visibility: 6 or more miles (10+ km)
Ceiling: at least 12,000 feet AGL
Clouds: few clouds at 2000 feet AGL
Weather: no significant weather observed at this time

METAR text: VTBS 230230Z 24009KT 190V270 9999 FEW020 32/22 Q1010 NOSIG
Conditions at: VTBS (CHON BURI/SATTAH, TH) observed 0230 UTC 23 June 2021
Temperature: 32.0°C (90°F)
Dewpoint: 22.0°C (72°F) [RH = 56%]
Pressure (altimeter): 29.82 inches Hg (1010.0 mb)
Winds: from the WSW (240 degrees) at 10 MPH (9 knots; 4.6 m/s)
Visibility: 6 or more miles (10+ km)
Ceiling: at least 12,000 feet AGL
Clouds: few clouds at 2000 feet AGL
Weather: no significant weather observed at this time

METAR text: VTBS 230200Z 22007KT 190V270 9999 FEW020 31/22 Q1010 NOSIG
Conditions at: VTBS (CHON BURI/SATTAH, TH) observed 0200 UTC 23 June 2021
Temperature: 31.0°C (88°F)
Dewpoint: 22.0°C (72°F) [RH = 59%]
Pressure (altimeter): 29.82 inches Hg (1010.0 mb)
Winds: from the SW (220 degrees) at 8 MPH (7 knots; 3.6 m/s)
Visibility: 6 or more miles (10+ km)
Ceiling: at least 12,000 feet AGL
Clouds: few clouds at 2000 feet AGL
Weather: no significant weather observed at this time

METAR text: VTBS 230130Z 23008KT 9999 FEW045 30/22 Q1010 NOSIG
Conditions at: VTBS (CHON BURI/SATTAH, TH) observed 0130 UTC 23 June 2021
Temperature: 30.0°C (86°F)
Dewpoint: 22.0°C (72°F) [RH = 62%]
Pressure (altimeter): 29.82 inches Hg (1010.0 mb)
Winds: from the SW (230 degrees) at 9 MPH (8 knots; 4.1 m/s)
Visibility: 6 or more miles (10+ km)
Ceiling: at least 12,000 feet AGL
Clouds: few clouds at 4500 feet AGL
Weather: no significant weather observed at this time

METAR text: VTBS 230100Z 25006KT 220V280 9999 FEW045 29/22 Q1009 NOSIG
Conditions at: VTBS (CHON BURI/SATTAH, TH) observed 0100 UTC 23 June 2021
Temperature: 29.0°C (84°F)
Dewpoint: 22.0°C (72°F) [RH = 66%]
Pressure (altimeter): 29.79 inches Hg (1009.0 mb)
Winds: from the WSW (250 degrees) at 7 MPH (6 knots; 3.1 m/s)
Visibility: 6 or more miles (10+ km)
Ceiling: at least 12,000 feet AGL
Clouds: few clouds at 4500 feet AGL
Weather: no significant weather observed at this time

METAR text: VTBS 230030Z 23005KT 200V260 9999 FEW045 29/22 Q1009 NOSIG
Conditions at: VTBS (CHON BURI/SATTAH, TH) observed 0030 UTC 23 June 2021
Temperature: 29.0°C (84°F)
Dewpoint: 22.0°C (72°F) [RH = 66%]
Pressure (altimeter): 29.79 inches Hg (1009.0 mb)
Winds: from the SW (230 degrees) at 6 MPH (5 knots; 2.6 m/s)
Visibility: 6 or more miles (10+ km)
Ceiling: at least 12,000 feet AGL
Clouds: few clouds at 4500 feet AGL
Weather: no significant weather observed at this time

METAR text: VTBS 230000Z 24003KT 210V270 9999 FEW045 28/23 Q1009 NOSIG
Conditions at: VTBS (CHON BURI/SATTAH, TH) observed 0000 UTC 23 June 2021
Temperature: 28.0°C (82°F)
Dewpoint: 23.0°C (73°F) [RH = 74%]
Pressure (altimeter): 29.79 inches Hg (1009.0 mb)
Winds: from the WSW (240 degrees) at 3 MPH (3 knots; 1.5 m/s)
Visibility: 6 or more miles (10+ km)
Ceiling: at least 12,000 feet AGL
Clouds: few clouds at 4500 feet AGL
Weather: no significant weather observed at this time

METAR text: VTBS 222330Z 21003KT 180V240 9999 FEW045 28/23 Q1009 NOSIG
Conditions at: VTBS (CHON BURI/SATTAH, TH) observed 2330 UTC 22 June 2021
Temperature: 28.0°C (82°F)
Dewpoint: 23.0°C (73°F) [RH = 74%]
Pressure (altimeter): 29.79 inches Hg (1009.0 mb)
Winds: from the SSW (210 degrees) at 3 MPH (3 knots; 1.5 m/s)
Visibility: 6 or more miles (10+ km)
Ceiling: at least 12,000 feet AGL
Clouds: few clouds at 4500 feet AGL
Weather: no significant weather observed at this time

METAR text: VTBS 222300Z 25003KT 220V280 9999 FEW045 27/23 Q1008 NOSIG
Conditions at: VTBS (CHON BURI/SATTAH, TH) observed 2300 UTC 22 June 2021
Temperature: 27.0°C (81°F)
Dewpoint: 23.0°C (73°F) [RH = 79%]
Pressure (altimeter): 29.76 inches Hg (1008.0 mb)
Winds: from the WSW (250 degrees) at 3 MPH (3 knots; 1.5 m/s)
Visibility: 6 or more miles (10+ km)
Ceiling: at least 12,000 feet AGL
Clouds: few clouds at 4500 feet AGL
Weather: no significant weather observed at this time

METAR text: VTBS 222230Z 26005KT 9999 FEW045 28/22 Q1008 NOSIG
Conditions at: VTBS (CHON BURI/SATTAH, TH) observed 2230 UTC 22 June 2021
Temperature: 28.0°C (82°F)
Dewpoint: 22.0°C (72°F) [RH = 70%]
Pressure (altimeter): 29.76 inches Hg (1008.0 mb)
Winds: from the W (260 degrees) at 6 MPH (5 knots; 2.6 m/s)
Visibility: 6 or more miles (10+ km)
Ceiling: at least 12,000 feet AGL
Clouds: few clouds at 4500 feet AGL
Weather: no significant weather observed at this time

METAR text: VTBS 222200Z 28005KT 250V310 9999 FEW045 28/22 Q1008 NOSIG
Conditions at: VTBS (CHON BURI/SATTAH, TH) observed 2200 UTC 22 June 2021
Temperature: 28.0°C (82°F)
Dewpoint: 22.0°C (72°F) [RH = 70%]
Pressure (altimeter): 29.76 inches Hg (1008.0 mb)
Winds: from the W (280 degrees) at 6 MPH (5 knots; 2.6 m/s)
Visibility: 6 or more miles (10+ km)
Ceiling: at least 12,000 feet AGL
Clouds: few clouds at 4500 feet AGL
Weather: no significant weather observed at this time

METAR text: VTBS 222130Z 28006KT 250V310 9999 FEW045 28/22 Q1008 NOSIG
Conditions at: VTBS (CHON BURI/SATTAH, TH) observed 2130 UTC 22 June 2021
Temperature: 28.0°C (82°F)
Dewpoint: 22.0°C (72°F) [RH = 70%]
Pressure (altimeter): 29.76 inches Hg (1008.0 mb)
Winds: from the W (280 degrees) at 7 MPH (6 knots; 3.1 m/s)
Visibility: 6 or more miles (10+ km)
Ceiling: at least 12,000 feet AGL
Clouds: few clouds at 4500 feet AGL
Weather: no significant weather observed at this time

METAR text: VTBS 222100Z 27006KT 240V320 9999 FEW045 28/22 Q1008 NOSIG
Conditions at: VTBS (CHON BURI/SATTAH, TH) observed 2100 UTC 22 June 2021
Temperature: 28.0°C (82°F)
Dewpoint: 22.0°C (72°F) [RH = 70%]
Pressure (altimeter): 29.76 inches Hg (1008.0 mb)
Winds: from the W (270 degrees) at 7 MPH (6 knots; 3.1 m/s)
Visibility: 6 or more miles (10+ km)
Ceiling: at least 12,000 feet AGL
Clouds: few clouds at 4500 feet AGL
Weather: no significant weather observed at this time

METAR text: VTBS 222030Z 26004KT 9999 FEW045 28/23 Q1007 NOSIG
Conditions at: VTBS (CHON BURI/SATTAH, TH) observed 2030 UTC 22 June 2021
Temperature: 28.0°C (82°F)
Dewpoint: 23.0°C (73°F) [RH = 74%]
Pressure (altimeter): 29.73 inches Hg (1007.0 mb)
Winds: from the W (260 degrees) at 5 MPH (4 knots; 2.1 m/s)
Visibility: 6 or more miles (10+ km)
Ceiling: at least 12,000 feet AGL
Clouds: few clouds at 4500 feet AGL
Weather: no significant weather observed at this time

METAR text: VTBS 222000Z 26005KT 9999 FEW045 28/23 Q1008 NOSIG
Conditions at: VTBS (CHON BURI/SATTAH, TH) observed 2000 UTC 22 June 2021
Temperature: 28.0°C (82°F)
Dewpoint: 23.0°C (73°F) [RH = 74%]
Pressure (altimeter): 29.76 inches Hg (1008.0 mb)
Winds: from the W (260 degrees) at 6 MPH (5 knots; 2.6 m/s)
Visibility: 6 or more miles (10+ km)
Ceiling: at least 12,000 feet AGL
Clouds: few clouds at 4500 feet AGL
Weather: no significant weather observed at this time

METAR text: VTBS 221930Z 25007KT 220V290 9999 FEW020 29/23 Q1008 NOSIG
Conditions at: VTBS (CHON BURI/SATTAH, TH) observed 1930 UTC 22 June 2021
Temperature: 29.0°C (84°F)
Dewpoint: 23.0°C (73°F) [RH = 70%]
Pressure (altimeter): 29.76 inches Hg (1008.0 mb)
Winds: from the WSW (250 degrees) at 8 MPH (7 knots; 3.6 m/s)
Visibility: 6 or more miles (10+ km)
Ceiling: at least 12,000 feet AGL
Clouds: few clouds at 2000 feet AGL
Weather: no significant weather observed at this time

METAR text: VTBS 221900Z 25007KT 9999 FEW020 29/22 Q1008 NOSIG
Conditions at: VTBS (CHON BURI/SATTAH, TH) observed 1900 UTC 22 June 2021
Temperature: 29.0°C (84°F)
Dewpoint: 22.0°C (72°F) [RH = 66%]
Pressure (altimeter): 29.76 inches Hg (1008.0 mb)
Winds: from the WSW (250 degrees) at 8 MPH (7 knots; 3.6 m/s)
Visibility: 6 or more miles (10+ km)
Ceiling: at least 12,000 feet AGL
Clouds: few clouds at 2000 feet AGL
Weather: no significant weather observed at this time

METAR text: VTBS 221830Z 25005KT 9999 FEW020 29/23 Q1008 NOSIG
Conditions at: VTBS (CHON BURI/SATTAH, TH) observed 1830 UTC 22 June 2021
Temperature: 29.0°C (84°F)
Dewpoint: 23.0°C (73°F) [RH = 70%]
Pressure (altimeter): 29.76 inches Hg (1008.0 mb)
Winds: from the WSW (250 degrees) at 6 MPH (5 knots; 2.6 m/s)
Visibility: 6 or more miles (10+ km)
Ceiling: at least 12,000 feet AGL
Clouds: few clouds at 2000 feet AGL
Weather: no significant weather observed at this time

METAR text: VTBS 221800Z 25005KT 9999 FEW020 30/24 Q1009 NOSIG
Conditions at: VTBS (CHON BURI/SATTAH, TH) observed 1800 UTC 22 June 2021
Temperature: 30.0°C (86°F)
Dewpoint: 24.0°C (75°F) [RH = 70%]
Pressure (altimeter): 29.79 inches Hg (1009.0 mb)
Winds: from the WSW (250 degrees) at 6 MPH (5 knots; 2.6 m/s)
Visibility: 6 or more miles (10+ km)
Ceiling: at least 12,000 feet AGL
Clouds: few clouds at 2000 feet AGL
Weather: no significant weather observed at this time

METAR text: VTBS 221730Z 26005KT 9999 FEW020 30/23 Q1009 NOSIG
Conditions at: VTBS (CHON BURI/SATTAH, TH) observed 1730 UTC 22 June 2021
Temperature: 30.0°C (86°F)
Dewpoint: 23.0°C (73°F) [RH = 66%]
Pressure (altimeter): 29.79 inches Hg (1009.0 mb)
Winds: from the W (260 degrees) at 6 MPH (5 knots; 2.6 m/s)
Visibility: 6 or more miles (10+ km)
Ceiling: at least 12,000 feet AGL
Clouds: few clouds at 2000 feet AGL
Weather: no significant weather observed at this time

METAR text: VTBS 221700Z 22004KT 200V260 9999 FEW020 30/25 Q1009 NOSIG
Conditions at: VTBS (CHON BURI/SATTAH, TH) observed 1700 UTC 22 June 2021
Temperature: 30.0°C (86°F)
Dewpoint: 25.0°C (77°F) [RH = 75%]
Pressure (altimeter): 29.79 inches Hg (1009.0 mb)
Winds: from the SW (220 degrees) at 5 MPH (4 knots; 2.1 m/s)
Visibility: 6 or more miles (10+ km)
Ceiling: at least 12,000 feet AGL
Clouds: few clouds at 2000 feet AGL
Weather: no significant weather observed at this time

METAR text: VTBS 221630Z 22006KT 9999 FEW020 30/25 Q1010 NOSIG
Conditions at: VTBS (CHON BURI/SATTAH, TH) observed 1630 UTC 22 June 2021
Temperature: 30.0°C (86°F)
Dewpoint: 25.0°C (77°F) [RH = 75%]
Pressure (altimeter): 29.82 inches Hg (1010.0 mb)
Winds: from the SW (220 degrees) at 7 MPH (6 knots; 3.1 m/s)
Visibility: 6 or more miles (10+ km)
Ceiling: at least 12,000 feet AGL
Clouds: few clouds at 2000 feet AGL
Weather: no significant weather observed at this time

METAR text: VTBS 221600Z 21006KT 9999 FEW020 30/25 Q1010 NOSIG
Conditions at: VTBS (CHON BURI/SATTAH, TH) observed 1600 UTC 22 June 2021
Temperature: 30.0°C (86°F)
Dewpoint: 25.0°C (77°F) [RH = 75%]
Pressure (altimeter): 29.82 inches Hg (1010.0 mb)
Winds: from the SSW (210 degrees) at 7 MPH (6 knots; 3.1 m/s)
Visibility: 6 or more miles (10+ km)
Ceiling: at least 12,000 feet AGL
Clouds: few clouds at 2000 feet AGL
Weather: no significant weather observed at this time

METAR text: VTBS 221530Z 21006KT 9999 FEW020 30/25 Q1009 NOSIG
Conditions at: VTBS (CHON BURI/SATTAH, TH) observed 1530 UTC 22 June 2021
Temperature: 30.0°C (86°F)
Dewpoint: 25.0°C (77°F) [RH = 75%]
Pressure (altimeter): 29.79 inches Hg (1009.0 mb)
Winds: from the SSW (210 degrees) at 7 MPH (6 knots; 3.1 m/s)
Visibility: 6 or more miles (10+ km)
Ceiling: at least 12,000 feet AGL
Clouds: few clouds at 2000 feet AGL
Weather: no significant weather observed at this time

METAR text: VTBS 221500Z 20007KT 9999 FEW020 30/25 Q1009 NOSIG
Conditions at: VTBS (CHON BURI/SATTAH, TH) observed 1500 UTC 22 June 2021
Temperature: 30.0°C (86°F)
Dewpoint: 25.0°C (77°F) [RH = 75%]
Pressure (altimeter): 29.79 inches Hg (1009.0 mb)
Winds: from the SSW (200 degrees) at 8 MPH (7 knots; 3.6 m/s)
Visibility: 6 or more miles (10+ km)
Ceiling: at least 12,000 feet AGL
Clouds: few clouds at 2000 feet AGL
Weather: no significant weather observed at this time

METAR text: VTBS 221430Z 20009KT 9999 FEW020 29/25 Q1009 NOSIG
Conditions at: VTBS (CHON BURI/SATTAH, TH) observed 1430 UTC 22 June 2021
Temperature: 29.0°C (84°F)
Dewpoint: 25.0°C (77°F) [RH = 79%]
Pressure (altimeter): 29.79 inches Hg (1009.0 mb)
Winds: from the SSW (200 degrees) at 10 MPH (9 knots; 4.6 m/s)
Visibility: 6 or more miles (10+ km)
Ceiling: at least 12,000 feet AGL
Clouds: few clouds at 2000 feet AGL
Weather: no significant weather observed at this time

METAR text: VTBS 221400Z 18011KT 9999 FEW020 SCT045 30/26 Q1008 NOSIG
Conditions at: VTBS (CHON BURI/SATTAH, TH) observed 1400 UTC 22 June 2021
Temperature: 30.0°C (86°F)
Dewpoint: 26.0°C (79°F) [RH = 79%]
Pressure (altimeter): 29.76 inches Hg (1008.0 mb)
Winds: from the S (180 degrees) at 13 MPH (11 knots; 5.7 m/s)
Visibility: 6 or more miles (10+ km)
Ceiling: at least 12,000 feet AGL
Clouds: few clouds at 2000 feet AGL
scattered clouds at 4500 feet AGL
Weather: no significant weather observed at this time

METAR text: VTBS 221330Z 19008KT 9999 FEW020 30/26 Q1008 NOSIG
Conditions at: VTBS (CHON BURI/SATTAH, TH) observed 1330 UTC 22 June 2021
Temperature: 30.0°C (86°F)
Dewpoint: 26.0°C (79°F) [RH = 79%]
Pressure (altimeter): 29.76 inches Hg (1008.0 mb)
Winds: from the S (190 degrees) at 9 MPH (8 knots; 4.1 m/s)
Visibility: 6 or more miles (10+ km)
Ceiling: at least 12,000 feet AGL
Clouds: few clouds at 2000 feet AGL
Weather: no significant weather observed at this time

METAR text: VTBS 221300Z 20012KT 9999 FEW020 30/26 Q1008 NOSIG
Conditions at: VTBS (CHON BURI/SATTAH, TH) observed 1300 UTC 22 June 2021
Temperature: 30.0°C (86°F)
Dewpoint: 26.0°C (79°F) [RH = 79%]
Pressure (altimeter): 29.76 inches Hg (1008.0 mb)
Winds: from the SSW (200 degrees) at 14 MPH (12 knots; 6.2 m/s)
Visibility: 6 or more miles (10+ km)
Ceiling: at least 12,000 feet AGL
Clouds: few clouds at 2000 feet AGL
Weather: no significant weather observed at this time

METAR text: VTBS 221230Z 21012KT 9999 FEW020 30/26 Q1007 NOSIG
Conditions at: VTBS (CHON BURI/SATTAH, TH) observed 1230 UTC 22 June 2021
Temperature: 30.0°C (86°F)
Dewpoint: 26.0°C (79°F) [RH = 79%]
Pressure (altimeter): 29.73 inches Hg (1007.0 mb)
Winds: from the SSW (210 degrees) at 14 MPH (12 knots; 6.2 m/s)
Visibility: 6 or more miles (10+ km)
Ceiling: at least 12,000 feet AGL
Clouds: few clouds at 2000 feet AGL
Weather: no significant weather observed at this time

METAR text: VTBS 221200Z 21013KT 9999 FEW020 30/25 Q1007 NOSIG
Conditions at: VTBS (CHON BURI/SATTAH, TH) observed 1200 UTC 22 June 2021
Temperature: 30.0°C (86°F)
Dewpoint: 25.0°C (77°F) [RH = 75%]
Pressure (altimeter): 29.73 inches Hg (1007.0 mb)
Winds: from the SSW (210 degrees) at 15 MPH (13 knots; 6.7 m/s)
Visibility: 6 or more miles (10+ km)
Ceiling: at least 12,000 feet AGL
Clouds: few clouds at 2000 feet AGL
Weather: no significant weather observed at this time

METAR text: VTBS 221130Z 19012KT 9999 FEW020 31/24 Q1006 NOSIG
Conditions at: VTBS (CHON BURI/SATTAH, TH) observed 1130 UTC 22 June 2021
Temperature: 31.0°C (88°F)
Dewpoint: 24.0°C (75°F) [RH = 66%]
Pressure (altimeter): 29.70 inches Hg (1006.0 mb)
Winds: from the S (190 degrees) at 14 MPH (12 knots; 6.2 m/s)
Visibility: 6 or more miles (10+ km)
Ceiling: at least 12,000 feet AGL
Clouds: few clouds at 2000 feet AGL
Weather: no significant weather observed at this time

METAR text: VTBS 221100Z 19012KT 9999 FEW020 32/24 Q1006 NOSIG
Conditions at: VTBS (CHON BURI/SATTAH, TH) observed 1100 UTC 22 June 2021
Temperature: 32.0°C (90°F)
Dewpoint: 24.0°C (75°F) [RH = 63%]
Pressure (altimeter): 29.70 inches Hg (1006.0 mb)
Winds: from the S (190 degrees) at 14 MPH (12 knots; 6.2 m/s)
Visibility: 6 or more miles (10+ km)
Ceiling: at least 12,000 feet AGL
Clouds: few clouds at 2000 feet AGL
Weather: no significant weather observed at this time

METAR text: VTBS 221030Z 18013KT 150V210 9999 FEW020 33/24 Q1006 NOSIG
Conditions at: VTBS (CHON BURI/SATTAH, TH) observed 1030 UTC 22 June 2021
Temperature: 33.0°C (91°F)
Dewpoint: 24.0°C (75°F) [RH = 59%]
Pressure (altimeter): 29.70 inches Hg (1006.0 mb)
Winds: from the S (180 degrees) at 15 MPH (13 knots; 6.7 m/s)
Visibility: 6 or more miles (10+ km)
Ceiling: at least 12,000 feet AGL
Clouds: few clouds at 2000 feet AGL
Weather: no significant weather observed at this time

METAR text: VTBS 221000Z 19011KT 9999 FEW020 33/23 Q1005 NOSIG
Conditions at: VTBS (CHON BURI/SATTAH, TH) observed 1000 UTC 22 June 2021
Temperature: 33.0°C (91°F)
Dewpoint: 23.0°C (73°F) [RH = 56%]
Pressure (altimeter): 29.68 inches Hg (1005.0 mb)
Winds: from the S (190 degrees) at 13 MPH (11 knots; 5.7 m/s)
Visibility: 6 or more miles (10+ km)
Ceiling: at least 12,000 feet AGL
Clouds: few clouds at 2000 feet AGL
Weather: no significant weather observed at this time

METAR text: VTBS 220930Z 19011KT 9999 FEW020 33/24 Q1005 NOSIG
Conditions at: VTBS (CHON BURI/SATTAH, TH) observed 0930 UTC 22 June 2021
Temperature: 33.0°C (91°F)
Dewpoint: 24.0°C (75°F) [RH = 59%]
Pressure (altimeter): 29.68 inches Hg (1005.0 mb)
Winds: from the S (190 degrees) at 13 MPH (11 knots; 5.7 m/s)
Visibility: 6 or more miles (10+ km)
Ceiling: at least 12,000 feet AGL
Clouds: few clouds at 2000 feet AGL
Weather: no significant weather observed at this time

METAR text: VTBS 220900Z 19008KT 160V220 9999 FEW020 34/23 Q1005 NOSIG
Conditions at: VTBS (CHON BURI/SATTAH, TH) observed 0900 UTC 22 June 2021
Temperature: 34.0°C (93°F)
Dewpoint: 23.0°C (73°F) [RH = 53%]
Pressure (altimeter): 29.68 inches Hg (1005.0 mb)
Winds: from the S (190 degrees) at 9 MPH (8 knots; 4.1 m/s)
Visibility: 6 or more miles (10+ km)
Ceiling: at least 12,000 feet AGL
Clouds: few clouds at 2000 feet AGL
Weather: no significant weather observed at this time

METAR text: VTBS 220830Z 19010KT 9999 FEW020 33/23 Q1005 NOSIG
Conditions at: VTBS (CHON BURI/SATTAH, TH) observed 0830 UTC 22 June 2021
Temperature: 33.0°C (91°F)
Dewpoint: 23.0°C (73°F) [RH = 56%]
Pressure (altimeter): 29.68 inches Hg (1005.0 mb)
Winds: from the S (190 degrees) at 12 MPH (10 knots; 5.1 m/s)
Visibility: 6 or more miles (10+ km)
Ceiling: at least 12,000 feet AGL
Clouds: few clouds at 2000 feet AGL
Weather: no significant weather observed at this time

METAR text: VTBS 220800Z 18011KT 160V220 9999 FEW020 34/24 Q1005 NOSIG
Conditions at: VTBS (CHON BURI/SATTAH, TH) observed 0800 UTC 22 June 2021
Temperature: 34.0°C (93°F)
Dewpoint: 24.0°C (75°F) [RH = 56%]
Pressure (altimeter): 29.68 inches Hg (1005.0 mb)
Winds: from the S (180 degrees) at 13 MPH (11 knots; 5.7 m/s)
Visibility: 6 or more miles (10+ km)
Ceiling: at least 12,000 feet AGL
Clouds: few clouds at 2000 feet AGL
Weather: no significant weather observed at this time

METAR text: VTBS 220730Z 18012KT 9999 FEW020 34/23 Q1006 NOSIG
Conditions at: VTBS (CHON BURI/SATTAH, TH) observed 0730 UTC 22 June 2021
Temperature: 34.0°C (93°F)
Dewpoint: 23.0°C (73°F) [RH = 53%]
Pressure (altimeter): 29.70 inches Hg (1006.0 mb)
Winds: from the S (180 degrees) at 14 MPH (12 knots; 6.2 m/s)
Visibility: 6 or more miles (10+ km)
Ceiling: at least 12,000 feet AGL
Clouds: few clouds at 2000 feet AGL
Weather: no significant weather observed at this time

METAR text: VTBS 220700Z 19011KT 9999 FEW020 34/24 Q1006 NOSIG
Conditions at: VTBS (CHON BURI/SATTAH, TH) observed 0700 UTC 22 June 2021
Temperature: 34.0°C (93°F)
Dewpoint: 24.0°C (75°F) [RH = 56%]
Pressure (altimeter): 29.70 inches Hg (1006.0 mb)
Winds: from the S (190 degrees) at 13 MPH (11 knots; 5.7 m/s)
Visibility: 6 or more miles (10+ km)
Ceiling: at least 12,000 feet AGL
Clouds: few clouds at 2000 feet AGL
Weather: no significant weather observed at this time

METAR text: VTBS 220630Z 19009KT 160V220 9999 FEW020 34/23 Q1007 NOSIG
Conditions at: VTBS (CHON BURI/SATTAH, TH) observed 0630 UTC 22 June 2021
Temperature: 34.0°C (93°F)
Dewpoint: 23.0°C (73°F) [RH = 53%]
Pressure (altimeter): 29.73 inches Hg (1007.0 mb)
Winds: from the S (190 degrees) at 10 MPH (9 knots; 4.6 m/s)
Visibility: 6 or more miles (10+ km)
Ceiling: at least 12,000 feet AGL
Clouds: few clouds at 2000 feet AGL
Weather: no significant weather observed at this time

METAR text: VTBS 220600Z 22008KT 170V260 9999 FEW020 34/22 Q1007 NOSIG
Conditions at: VTBS (CHON BURI/SATTAH, TH) observed 0600 UTC 22 June 2021
Temperature: 34.0°C (93°F)
Dewpoint: 22.0°C (72°F) [RH = 50%]
Pressure (altimeter): 29.73 inches Hg (1007.0 mb)
Winds: from the SW (220 degrees) at 9 MPH (8 knots; 4.1 m/s)
Visibility: 6 or more miles (10+ km)
Ceiling: at least 12,000 feet AGL
Clouds: few clouds at 2000 feet AGL
Weather: no significant weather observed at this time

METAR text: VTBS 220530Z 21008KT 170V240 9999 FEW020 33/23 Q1008 NOSIG
Conditions at: VTBS (CHON BURI/SATTAH, TH) observed 0530 UTC 22 June 2021
Temperature: 33.0°C (91°F)
Dewpoint: 23.0°C (73°F) [RH = 56%]
Pressure (altimeter): 29.76 inches Hg (1008.0 mb)
Winds: from the SSW (210 degrees) at 9 MPH (8 knots; 4.1 m/s)
Visibility: 6 or more miles (10+ km)
Ceiling: at least 12,000 feet AGL
Clouds: few clouds at 2000 feet AGL
Weather: no significant weather observed at this time

METAR text: VTBS 220500Z VRB05KT 9999 FEW020 SCT040 33/23 Q1008 NOSIG
Conditions at: VTBS (CHON BURI/SATTAH, TH) observed 0500 UTC 22 June 2021
Temperature: 33.0°C (91°F)
Dewpoint: 23.0°C (73°F) [RH = 56%]
Pressure (altimeter): 29.76 inches Hg (1008.0 mb)
Winds: variable direction winds at 6 MPH (5 knots; 2.6 m/s)
Visibility: 6 or more miles (10+ km)
Ceiling: at least 12,000 feet AGL
Clouds: few clouds at 2000 feet AGL
scattered clouds at 4000 feet AGL
Weather: no significant weather observed at this time

METAR text: VTBS 220430Z 23008KT 180V290 9999 FEW020 SCT040 33/23 Q1008 NOSIG
Conditions at: VTBS (CHON BURI/SATTAH, TH) observed 0430 UTC 22 June 2021
Temperature: 33.0°C (91°F)
Dewpoint: 23.0°C (73°F) [RH = 56%]
Pressure (altimeter): 29.76 inches Hg (1008.0 mb)
Winds: from the SW (230 degrees) at 9 MPH (8 knots; 4.1 m/s)
Visibility: 6 or more miles (10+ km)
Ceiling: at least 12,000 feet AGL
Clouds: few clouds at 2000 feet AGL
scattered clouds at 4000 feet AGL
Weather: no significant weather observed at this time

METAR text: VTBS 220400Z 25007KT 190V330 9999 FEW020 SCT040 32/22 Q1009 NOSIG
Conditions at: VTBS (CHON BURI/SATTAH, TH) observed 0400 UTC 22 June 2021
Temperature: 32.0°C (90°F)
Dewpoint: 22.0°C (72°F) [RH = 56%]
Pressure (altimeter): 29.79 inches Hg (1009.0 mb)
Winds: from the WSW (250 degrees) at 8 MPH (7 knots; 3.6 m/s)
Visibility: 6 or more miles (10+ km)
Ceiling: at least 12,000 feet AGL
Clouds: few clouds at 2000 feet AGL
scattered clouds at 4000 feet AGL
Weather: no significant weather observed at this time

METAR text: VTBS 220330Z 26008KT 230V300 9999 FEW020 32/23 Q1009 NOSIG
Conditions at: VTBS (CHON BURI/SATTAH, TH) observed 0330 UTC 22 June 2021
Temperature: 32.0°C (90°F)
Dewpoint: 23.0°C (73°F) [RH = 59%]
Pressure (altimeter): 29.79 inches Hg (1009.0 mb)
Winds: from the W (260 degrees) at 9 MPH (8 knots; 4.1 m/s)
Visibility: 6 or more miles (10+ km)
Ceiling: at least 12,000 feet AGL
Clouds: few clouds at 2000 feet AGL
Weather: no significant weather observed at this time

METAR text: VTBS 220300Z 26008KT 210V310 9999 FEW020 32/22 Q1009 NOSIG
Conditions at: VTBS (CHON BURI/SATTAH, TH) observed 0300 UTC 22 June 2021
Temperature: 32.0°C (90°F)
Dewpoint: 22.0°C (72°F) [RH = 56%]
Pressure (altimeter): 29.79 inches Hg (1009.0 mb)
Winds: from the W (260 degrees) at 9 MPH (8 knots; 4.1 m/s)
Visibility: 6 or more miles (10+ km)
Ceiling: at least 12,000 feet AGL
Clouds: few clouds at 2000 feet AGL
Weather: no significant weather observed at this time

METAR text: VTBS 220230Z 24007KT 200V280 9999 FEW030 31/23 Q1009 NOSIG
Conditions at: VTBS (CHON BURI/SATTAH, TH) observed 0230 UTC 22 June 2021
Temperature: 31.0°C (88°F)
Dewpoint: 23.0°C (73°F) [RH = 63%]
Pressure (altimeter): 29.79 inches Hg (1009.0 mb)
Winds: from the WSW (240 degrees) at 8 MPH (7 knots; 3.6 m/s)
Visibility: 6 or more miles (10+ km)
Ceiling: at least 12,000 feet AGL
Clouds: few clouds at 3000 feet AGL
Weather: no significant weather observed at this time

METAR text: VTBS 220200Z 26008KT 9999 FEW035 31/22 Q1009 NOSIG
Conditions at: VTBS (CHON BURI/SATTAH, TH) observed 0200 UTC 22 June 2021
Temperature: 31.0°C (88°F)
Dewpoint: 22.0°C (72°F) [RH = 59%]
Pressure (altimeter): 29.79 inches Hg (1009.0 mb)
Winds: from the W (260 degrees) at 9 MPH (8 knots; 4.1 m/s)
Visibility: 6 or more miles (10+ km)
Ceiling: at least 12,000 feet AGL
Clouds: few clouds at 3500 feet AGL
Weather: no significant weather observed at this time

METAR text: VTBS 220130Z 28006KT 240V310 9999 FEW030 30/22 Q1009 NOSIG
Conditions at: VTBS (CHON BURI/SATTAH, TH) observed 0130 UTC 22 June 2021
Temperature: 30.0°C (86°F)
Dewpoint: 22.0°C (72°F) [RH = 62%]
Pressure (altimeter): 29.79 inches Hg (1009.0 mb)
Winds: from the W (280 degrees) at 7 MPH (6 knots; 3.1 m/s)
Visibility: 6 or more miles (10+ km)
Ceiling: at least 12,000 feet AGL
Clouds: few clouds at 3000 feet AGL
Weather: no significant weather observed at this time

METAR text: VTBS 220100Z 27007KT 240V310 9999 FEW030 29/22 Q1008 NOSIG
Conditions at: VTBS (CHON BURI/SATTAH, TH) observed 0100 UTC 22 June 2021
Temperature: 29.0°C (84°F)
Dewpoint: 22.0°C (72°F) [RH = 66%]
Pressure (altimeter): 29.76 inches Hg (1008.0 mb)
Winds: from the W (270 degrees) at 8 MPH (7 knots; 3.6 m/s)
Visibility: 6 or more miles (10+ km)
Ceiling: at least 12,000 feet AGL
Clouds: few clouds at 3000 feet AGL
Weather: no significant weather observed at this time

METAR text: VTBS 220030Z 26005KT 220V290 CAVOK 29/23 Q1008 NOSIG
Conditions at: VTBS (CHON BURI/SATTAH, TH) observed 0030 UTC 22 June 2021
Temperature: 29.0°C (84°F)
Dewpoint: 23.0°C (73°F) [RH = 70%]
Pressure (altimeter): 29.76 inches Hg (1008.0 mb)
Winds: from the W (260 degrees) at 6 MPH (5 knots; 2.6 m/s)
Visibility: 6 or more miles (10+ km)
Ceiling: ceiling and visibility are OK
Clouds: unknown
Weather: no significant weather observed at this time

METAR text: VTBS 220000Z 25004KT 220V280 CAVOK 28/24 Q1008 NOSIG
Conditions at: VTBS (CHON BURI/SATTAH, TH) observed 0000 UTC 22 June 2021
Temperature: 28.0°C (82°F)
Dewpoint: 24.0°C (75°F) [RH = 79%]
Pressure (altimeter): 29.76 inches Hg (1008.0 mb)
Winds: from the WSW (250 degrees) at 5 MPH (4 knots; 2.1 m/s)
Visibility: 6 or more miles (10+ km)
Ceiling: ceiling and visibility are OK
Clouds: unknown
Weather: no significant weather observed at this time

METAR text: VTBS 212330Z 25003KT 9000 NSC 27/23 Q1007 NOSIG
Conditions at: VTBS (CHON BURI/SATTAH, TH) observed 2330 UTC 21 June 2021
Temperature: 27.0°C (81°F)
Dewpoint: 23.0°C (73°F) [RH = 79%]
Pressure (altimeter): 29.73 inches Hg (1007.0 mb)
Winds: from the WSW (250 degrees) at 3 MPH (3 knots; 1.5 m/s)
Visibility: 6 miles ( 9 km)
Ceiling: at least 12,000 feet AGL
Clouds: sky clear below 12,000 feet AGL
Weather: no significant weather observed at this time

Forecast for: VTBS (CHON BURI/SATTAH, TH)
Text: TAF VTBS 230500Z 2306/2412 20008KT 9999 FEW020
Forecast period: 0600 to 1500 UTC 23 June 2021
Forecast type: FROM: standard forecast or significant change
Winds: from the SSW (200 degrees) at 9 MPH (8 knots; 4.1 m/s)
Visibility: 6 or more miles (10+ km)
Ceiling: at least 12,000 feet AGL
Clouds: few clouds at 2000 feet AGL
Weather: no significant weather forecast for this period
Text: TEMPO 2310/2314 26015KT 3000 TSRA FEW018CB SCT030 BKN100
Forecast period: 1000 to 1400 UTC 23 June 2021
Forecast type: TEMPORARY: The following changes expected for less than half the time period
Winds: from the W (260 degrees) at 17 MPH (15 knots; 7.7 m/s)
Visibility: 1.86 miles (2.99 km)
Ceiling: 10000 feet AGL
Clouds: few clouds at 1800 feet AGL
scattered clouds at 3000 feet AGL
broken clouds at 10000 feet AGL
Weather: TSRA  (rain associated with thunderstorm(s))
Text: BECMG 2315/2317 26005KT
Forecast period: 1500 UTC 23 June 2021 to 0500 UTC 24 June 2021
Forecast type: BECOMING: Conditions expected to become as follows by 1700 UTC 23 June 2021
Winds: from the W (260 degrees) at 6 MPH (5 knots; 2.6 m/s)
Visibility: 6 or more miles (10+ km)
Ceiling: at least 12,000 feet AGL
Clouds: few clouds at 2000 feet AGL
Weather: no significant weather forecast for this period
Text: BECMG 2405/2407 20008KT
Forecast period: 0500 to 1200 UTC 24 June 2021
Forecast type: BECOMING: Conditions expected to become as follows by 0700 UTC 24 June 2021
Winds: from the SSW (200 degrees) at 9 MPH (8 knots; 4.1 m/s)
Visibility: 6 or more miles (10+ km)
Ceiling: at least 12,000 feet AGL
Clouds: few clouds at 2000 feet AGL
Weather: no significant weather forecast for this period